Austrian E195 at Innsbruck on May 27th 2019, brakes problem

Last Update: May 28, 2019 / 20:33:36 GMT/Zulu time

Bookmark this article
Incident Facts

Date of incident
May 27, 2019

Classification
Incident

Flight number
OS-901

Aircraft Registration
OE-LWG

Aircraft Type
Embraer ERJ-195

ICAO Type Designator
E195

An Austrian Airlines Embraer ERJ-195, registration OE-LWG performing flight OS-901 from Vienna to Innsbruck (Austria) with 94 passengers and 5 crew, was on final approach to Innsbruck's runway 26 when the crew initiated a go around climbing to above 11,000 feet along the valley before turning back to return to Vienna. The aircraft climbed to FL290 for the return to Vienna and landed safely on Vienna's runway 11 about 55 minutes after the go around. The aircraft taxied to the apron, where passengers disembarked normally.

The airline reported the crew decided to return to Vienna due to the length of the runway in Innsbruck, the landing in Vienna was normal.

A passenger reported the crew announced insufficient brakes performance and a wet runway prompted them to return to Vienna.

Metars Innsbruck:
COR LOWI 271750Z 26002KT 6000 -RA FEW006 SCT020 BKN030 13/12 Q1009 NOSIG=
LOWI 271720Z VRB02KT 9000 -RA SCT008 SCT020 BKN030 13/12 Q1009 NOSIG=
LOWI 271650Z 24003KT 8000 -RA SCT008 SCT020 BKN035 13/12 Q1009 NOSIG=
LOWI 271620Z 27003KT 6000 RA FEW007 SCT020 BKN040 14/13 Q1010 NOSIG=
LOWI 271550Z 27003KT 8000 -RA FEW007 SCT025 BKN040 14/13 Q1010 NOSIG=
LOWI 271520Z 29004KT 9999 -RA FEW020 SCT040 BKN050 14/13 Q1010 NOSIG=
LOWI 271450Z 27006KT 9999 -RA FEW020 SCT040 BKN050 15/12 Q1010 NOSIG=
LOWI 271420Z 28007KT 9999 -RA FEW020 SCT040 BKN050 15/12 Q1010 NOSIG=
Aircraft Registration Data New!
Registration mark
OE-LWG
Country of Registration
Austria
Manufacturer
EMBRAER
Aircraft Model / Type
ERJ 190-200 LR
ICAO Aircraft Type
E195
Serial Number
Maximum Take off Mass (MTOM) [kg]
Engine Count
Main Operator
cdncgbkdcldAefinbhcjfnbbnlAqAbg ikhdpjbljiiq cfghbhjdhkmgkeinlmd Subscribe to unlock
Incident Facts

Date of incident
May 27, 2019

Classification
Incident

Flight number
OS-901

Aircraft Registration
OE-LWG

Aircraft Type
Embraer ERJ-195

ICAO Type Designator
E195

This article is published under license from Avherald.com. © of text by Avherald.com.
Article source

You can read 4 more free articles without a subscription.

Subscribe now and continue reading without any limits!

Are you a subscriber?
Login
Subscribe

Read unlimited articles and receive our daily update briefing. Gain better insights into what is happening in commercial aviation safety.

Free newsletter

Want to know more and stay ahead? Get our free weekly newsletter and join 4930 existing subscribers.

By subscribing, you accept our terms and conditions and confirm that you've read our privacy policy.

Send tip

Support AeroInside by sending a small tip amount.

Related articles

Newest articles

Subscribe today

Are you researching aviation incidents? Get access to AeroInside Insights, unlimited read access and receive the daily newsletter.

Pick your plan and subscribe

Partner

Blockaviation logo

A new way to document and demonstrate airworthiness compliance and aircraft value. Find out more.

Virtual Speech logo

ELITE Simulation Solutions is a leading global provider of Flight Simulation Training Devices, IFR training software as well as flight controls and related services. Find out more.

Get updates

Never miss an article from AeroInside. Subscribe to our free weekly newsletter and join 4930 existing subscribers.

By subscribing, you accept our terms and conditions and that you've read our privacy policy.

AeroInside Blog
Popular aircraft
Airbus A320
Boeing 737-800
Boeing 737-800 MAX
Popular airlines
American Airlines
United
Delta
Air Canada
Lufthansa
British Airways